Time;durP1;ratioP1;P1;durP2;ratioP2;P2;SDS_P1;SDS_P2;PMS_P1;PMS_P2;Temp;Humidity;BMP_temperature;BMP_pressure;BME280_temperature;BME280_humidity;BME280_pressure;Samples;Min_cycle;Max_cycle;Signal;HPM_P1;HPM_P2
2024/01/18 00:00:40;;;;;;;12.10;2.30;;;;;;;;;;5043517;28;20264;-94
2024/01/18 00:03:09;;;;;;;17.23;5.30;;;;;;;;;;5024431;28;20724;-91
2024/01/18 00:05:35;;;;;;;7.03;2.60;;;;;;;;;;5032209;28;20358;-91
2024/01/18 00:08:01;;;;;;;2.03;0.87;;;;;;;;;;5017682;28;20312;-92
2024/01/18 00:10:28;;;;;;;2.97;1.00;;;;;;;;;;5023215;28;20715;-87
2024/01/18 00:12:54;;;;;;;0.93;0.60;;;;;;;;;;5028071;28;20044;-92
2024/01/18 00:15:21;;;;;;;2.20;1.23;;;;;;;;;;5037130;28;20316;-89
2024/01/18 00:17:47;;;;;;;11.70;2.53;;;;;;;;;;5022460;28;20281;-89
2024/01/18 00:20:14;;;;;;;20.40;6.53;;;;;;;;;;5014770;28;20272;-91
2024/01/18 00:22:40;;;;;;;16.13;6.87;;;;;;;;;;5014560;28;20347;-85
2024/01/18 00:25:07;;;;;;;4.10;2.30;;;;;;;;;;5014533;28;20370;-89
2024/01/18 00:27:37;;;;;;;9.17;4.23;;;;;;;;;;5016902;28;20766;-86
2024/01/18 00:30:03;;;;;;;8.73;2.90;;;;;;;;;;5031159;28;20280;-88
2024/01/18 00:32:29;;;;;;;10.93;3.53;;;;;;;;;;5030310;28;20759;-89
2024/01/18 00:34:55;;;;;;;4.40;2.60;;;;;;;;;;5012891;28;20276;-87
2024/01/18 00:37:22;;;;;;;4.10;1.70;;;;;;;;;;5011946;28;20288;-88
2024/01/18 00:39:47;;;;;;;5.13;1.57;;;;;;;;;;5012149;28;20049;-87
2024/01/18 00:42:13;;;;;;;7.07;1.47;;;;;;;;;;5027785;28;20637;-88
2024/01/18 00:44:39;;;;;;;1.27;0.80;;;;;;;;;;5010459;28;20025;-87
2024/01/18 00:47:05;;;;;;;2.27;1.07;;;;;;;;;;5015910;28;20064;-88
2024/01/18 00:49:32;;;;;;;1.50;0.70;;;;;;;;;;5017666;28;20048;-85
2024/01/18 00:51:58;;;;;;;1.83;1.00;;;;;;;;;;5017415;28;20042;-87
2024/01/18 00:54:24;;;;;;;3.63;0.87;;;;;;;;;;5034972;28;21035;-88
2024/01/18 00:56:50;;;;;;;2.27;1.37;;;;;;;;;;5029116;28;20279;-86
2024/01/18 00:59:16;;;;;;;1.00;0.70;;;;;;;;;;5013417;28;20276;-88
2024/01/18 01:01:47;;;;;;;3.90;1.17;;;;;;;;;;5029124;28;20046;-87
2024/01/18 01:04:13;;;;;;;4.90;1.37;;;;;;;;;;5017652;28;20276;-90
2024/01/18 01:06:42;;;;;;;3.40;0.83;;;;;;;;;;5012123;28;20354;-85
2024/01/18 01:09:09;;;;;;;1.87;0.90;;;;;;;;;;5016223;28;20291;-87
2024/01/18 01:11:37;;;;;;;2.53;0.90;;;;;;;;;;5021589;28;20288;-87
2024/01/18 01:14:06;;;;;;;13.97;3.53;;;;;;;;;;5033093;28;20283;-86
2024/01/18 01:16:35;;;;;;;1.73;0.73;;;;;;;;;;5010748;28;20299;-88
2024/01/18 01:19:03;;;;;;;1.63;0.83;;;;;;;;;;5011734;28;20272;-92
2024/01/18 01:21:47;;;;;;;20.33;5.63;;;;;;;;;;5013900;28;20347;-89
2024/01/18 01:24:16;;;;;;;2.83;0.80;;;;;;;;;;5012729;28;20324;-90
2024/01/18 01:26:42;;;;;;;4.23;1.60;;;;;;;;;;5028190;28;20272;-88
2024/01/18 01:29:10;;;;;;;2.93;1.37;;;;;;;;;;5028271;28;20285;-91
2024/01/18 01:31:36;;;;;;;2.13;0.63;;;;;;;;;;5032134;28;20273;-88
2024/01/18 01:34:26;;;;;;;1.93;1.00;;;;;;;;;;5089606;27;20856;-82
2024/01/18 01:36:52;;;;;;;11.50;2.53;;;;;;;;;;5071250;28;20298;-90
2024/01/18 01:39:21;;;;;;;2.10;0.47;;;;;;;;;;5087384;28;20266;-91
2024/01/18 01:41:57;;;;;;;17.87;4.87;;;;;;;;;;5075442;28;20295;-92
2024/01/18 01:44:23;;;;;;;4.77;2.20;;;;;;;;;;5090880;28;20266;-88
2024/01/18 01:46:49;;;;;;;1.40;0.73;;;;;;;;;;5067603;28;20353;-86
2024/01/18 01:49:21;;;;;;;1.57;0.80;;;;;;;;;;5088582;28;20287;-84
2024/01/18 01:51:49;;;;;;;2.37;0.73;;;;;;;;;;5068293;28;20761;-86
2024/01/18 01:54:15;;;;;;;10.93;3.77;;;;;;;;;;5071415;28;20302;-90
2024/01/18 01:56:43;;;;;;;1.23;0.70;;;;;;;;;;5069152;28;20278;-89
2024/01/18 01:59:14;;;;;;;3.43;0.77;;;;;;;;;;5068635;28;20300;-89
2024/01/18 02:01:45;;;;;;;7.23;2.37;;;;;;;;;;5087773;28;20714;-87
2024/01/18 02:04:12;;;;;;;4.60;1.00;;;;;;;;;;5089162;28;20294;-90
2024/01/18 02:06:41;;;;;;;27.90;6.50;;;;;;;;;;5071607;28;20285;-89
2024/01/18 02:09:10;;;;;;;25.37;6.73;;;;;;;;;;5087794;28;20451;-90
2024/01/18 02:11:37;;;;;;;6.93;2.57;;;;;;;;;;5070805;28;20278;-90
2024/01/18 02:14:03;;;;;;;8.60;2.90;;;;;;;;;;5086671;28;20320;-86
2024/01/18 02:16:30;;;;;;;14.30;4.60;;;;;;;;;;5086743;28;20281;-86
2024/01/18 02:18:56;;;;;;;2.37;1.03;;;;;;;;;;5085489;28;20271;-88
2024/01/18 02:21:25;;;;;;;4.63;1.93;;;;;;;;;;5070471;28;20321;-86
2024/01/18 02:23:55;;;;;;;2.70;1.00;;;;;;;;;;5071133;28;20344;-89
2024/01/18 02:26:21;;;;;;;1.50;0.83;;;;;;;;;;5088190;28;20282;-88
2024/01/18 02:28:56;;;;;;;0.50;0.33;;;;;;;;;;5069091;28;20287;-85
2024/01/18 02:31:23;;;;;;;3.83;0.43;;;;;;;;;;5070302;28;20282;-91
2024/01/18 02:33:49;;;;;;;0.43;0.27;;;;;;;;;;5070138;28;20321;-90
2024/01/18 02:36:16;;;;;;;1.33;0.43;;;;;;;;;;5086757;28;20318;-89
2024/01/18 02:38:42;;;;;;;0.20;0.10;;;;;;;;;;5089206;28;20320;-88
2024/01/18 02:41:08;;;;;;;0.80;0.40;;;;;;;;;;5087711;28;20271;-90
2024/01/18 02:43:35;;;;;;;0.93;0.40;;;;;;;;;;5085301;28;20335;-90
2024/01/18 02:46:03;;;;;;;6.90;0.83;;;;;;;;;;5075160;28;20281;-89
2024/01/18 02:48:29;;;;;;;2.67;0.97;;;;;;;;;;5075857;28;20290;-89
2024/01/18 02:50:56;;;;;;;9.47;2.13;;;;;;;;;;5073898;28;20795;-89
2024/01/18 02:53:25;;;;;;;0.90;0.40;;;;;;;;;;5075201;28;20299;-87
2024/01/18 02:55:51;;;;;;;1.53;0.77;;;;;;;;;;5075371;28;20330;-91
2024/01/18 02:58:17;;;;;;;1.93;0.67;;;;;;;;;;5073811;28;20301;-82
2024/01/18 03:00:44;;;;;;;0.13;0.10;;;;;;;;;;5073288;28;20336;-90
2024/01/18 03:03:10;;;;;;;14.43;3.30;;;;;;;;;;5072010;28;20270;-90
2024/01/18 03:05:36;;;;;;;4.73;0.93;;;;;;;;;;5053586;28;20301;-88
2024/01/18 03:08:02;;;;;;;2.87;0.50;;;;;;;;;;5056113;28;20905;-90
2024/01/18 03:10:28;;;;;;;16.77;3.90;;;;;;;;;;5054650;28;20056;-89
2024/01/18 03:12:56;;;;;;;6.90;1.40;;;;;;;;;;5049556;28;20283;-87
2024/01/18 03:15:22;;;;;;;10.43;2.90;;;;;;;;;;5054879;28;20286;-90
2024/01/18 03:17:49;;;;;;;2.97;1.50;;;;;;;;;;5053913;28;20274;-91
2024/01/18 03:20:15;;;;;;;9.73;2.90;;;;;;;;;;5052049;28;20035;-85
2024/01/18 03:22:41;;;;;;;23.80;7.40;;;;;;;;;;5072969;28;20295;-89
2024/01/18 03:25:08;;;;;;;13.87;2.70;;;;;;;;;;5051067;28;20358;-84
2024/01/18 03:27:34;;;;;;;24.30;4.13;;;;;;;;;;5072455;28;20328;-91
2024/01/18 03:30:00;;;;;;;1.10;0.70;;;;;;;;;;5054357;28;20282;-88
2024/01/18 03:32:26;;;;;;;0.80;0.47;;;;;;;;;;5075383;28;20347;-89
2024/01/18 03:34:52;;;;;;;0.43;0.30;;;;;;;;;;5073063;28;20028;-88
2024/01/18 03:37:18;;;;;;;0.50;0.30;;;;;;;;;;5053323;28;20229;-90
2024/01/18 03:39:45;;;;;;;0.70;0.33;;;;;;;;;;5073796;28;20340;-84
2024/01/18 03:42:11;;;;;;;27.53;4.43;;;;;;;;;;5077060;28;20648;-87
2024/01/18 03:44:37;;;;;;;2.80;0.50;;;;;;;;;;5055399;28;20279;-87
2024/01/18 03:47:04;;;;;;;0.60;0.30;;;;;;;;;;5053189;28;20274;-84
2024/01/18 03:49:30;;;;;;;0.47;0.20;;;;;;;;;;5055448;28;20275;-90
2024/01/18 03:51:58;;;;;;;10.73;2.33;;;;;;;;;;5071313;28;20285;-85
2024/01/18 03:54:24;;;;;;;3.57;0.90;;;;;;;;;;5077810;28;20264;-91
2024/01/18 03:56:50;;;;;;;19.20;3.43;;;;;;;;;;5053590;28;20263;-87
2024/01/18 03:59:16;;;;;;;14.30;2.67;;;;;;;;;;5051238;28;20286;-90
2024/01/18 04:01:43;;;;;;;2.07;0.73;;;;;;;;;;5075742;28;20078;-85
2024/01/18 04:04:12;;;;;;;3.00;0.63;;;;;;;;;;5051697;28;20323;-85
2024/01/18 04:06:38;;;;;;;3.73;1.20;;;;;;;;;;5071595;28;20278;-89
2024/01/18 04:09:06;;;;;;;19.57;4.67;;;;;;;;;;5070325;28;20306;-90
2024/01/18 04:11:34;;;;;;;2.23;1.23;;;;;;;;;;5052262;28;20050;-89
2024/01/18 04:14:00;;;;;;;0.43;0.30;;;;;;;;;;5050509;28;20282;-84
2024/01/18 04:16:26;;;;;;;2.83;0.50;;;;;;;;;;5053406;28;20275;-88
2024/01/18 04:18:52;;;;;;;2.73;1.10;;;;;;;;;;5067961;28;20274;-88
2024/01/18 04:21:18;;;;;;;10.37;1.70;;;;;;;;;;5050670;28;20297;-88
2024/01/18 04:23:44;;;;;;;31.07;7.40;;;;;;;;;;5049538;28;20048;-89
2024/01/18 04:26:10;;;;;;;1.90;1.00;;;;;;;;;;5067208;28;20136;-87
2024/01/18 04:28:36;;;;;;;15.47;2.97;;;;;;;;;;5052499;28;20290;-87
2024/01/18 04:31:02;;;;;;;3.37;1.13;;;;;;;;;;5051747;28;20353;-88
2024/01/18 04:33:28;;;;;;;1.77;0.70;;;;;;;;;;5051462;28;20028;-88
2024/01/18 04:35:56;;;;;;;3.23;0.87;;;;;;;;;;5067955;28;20268;-89
2024/01/18 04:38:23;;;;;;;1.43;0.57;;;;;;;;;;5049706;28;20028;-88
2024/01/18 04:40:50;;;;;;;31.13;6.10;;;;;;;;;;5050535;28;20297;-86
2024/01/18 04:43:19;;;;;;;4.23;1.07;;;;;;;;;;5066398;28;20374;-89
2024/01/18 04:45:45;;;;;;;15.83;4.63;;;;;;;;;;5058253;28;20276;-94
2024/01/18 04:48:11;;;;;;;13.93;2.93;;;;;;;;;;5078798;28;20378;-92
2024/01/18 04:50:37;;;;;;;7.13;3.67;;;;;;;;;;5068375;28;20029;-90
2024/01/18 04:53:03;;;;;;;19.27;4.30;;;;;;;;;;5070137;28;20370;-91
2024/01/18 04:55:31;;;;;;;2.90;1.13;;;;;;;;;;5065907;28;20109;-89
2024/01/18 04:57:58;;;;;;;22.23;4.67;;;;;;;;;;5060777;28;20315;-91
2024/01/18 05:00:24;;;;;;;27.60;5.73;;;;;;;;;;5066933;28;20661;-90
2024/01/18 05:02:52;;;;;;;18.73;4.07;;;;;;;;;;5069783;28;20657;-91
2024/01/18 05:05:21;;;;;;;18.23;5.03;;;;;;;;;;5070145;28;20262;-92
2024/01/18 05:07:47;;;;;;;3.47;1.43;;;;;;;;;;5075406;28;20289;-89
2024/01/18 05:10:13;;;;;;;2.17;1.03;;;;;;;;;;5059150;28;20313;-90
2024/01/18 05:12:40;;;;;;;1.13;0.57;;;;;;;;;;5059418;28;20326;-89
2024/01/18 05:15:07;;;;;;;0.70;0.30;;;;;;;;;;5075841;28;20021;-88
2024/01/18 05:17:37;;;;;;;0.77;0.30;;;;;;;;;;5056535;28;20276;-93
2024/01/18 05:20:06;;;;;;;1.13;0.57;;;;;;;;;;5068032;28;20354;-90
2024/01/18 05:22:33;;;;;;;0.60;0.33;;;;;;;;;;5062756;28;20290;-91
2024/01/18 05:24:59;;;;;;;0.40;0.20;;;;;;;;;;5066190;28;20282;-89
2024/01/18 05:27:29;;;;;;;0.20;0.20;;;;;;;;;;5069454;28;20273;-90
2024/01/18 05:29:58;;;;;;;0.17;0.10;;;;;;;;;;5068279;28;20341;-90
2024/01/18 05:32:24;;;;;;;0.30;0.20;;;;;;;;;;5076639;28;20291;-90
2024/01/18 05:34:50;;;;;;;13.83;2.33;;;;;;;;;;5057061;28;20282;-88
2024/01/18 05:37:17;;;;;;;0.80;0.50;;;;;;;;;;5080381;28;20087;-92
2024/01/18 05:39:43;;;;;;;13.10;2.70;;;;;;;;;;5072433;28;20254;-93
2024/01/18 05:42:09;;;;;;;7.23;2.37;;;;;;;;;;5072698;28;20307;-92
2024/01/18 05:44:38;;;;;;;6.13;1.20;;;;;;;;;;5067707;28;20285;-92
2024/01/18 05:47:06;;;;;;;1.63;0.70;;;;;;;;;;5059464;28;20267;-91
2024/01/18 05:49:32;;;;;;;0.90;0.70;;;;;;;;;;5080722;28;20289;-92
2024/01/18 05:51:58;;;;;;;25.87;6.57;;;;;;;;;;5068932;28;20269;-92
2024/01/18 05:54:24;;;;;;;10.70;2.73;;;;;;;;;;5052376;28;20062;-92
2024/01/18 05:56:50;;;;;;;2.00;1.40;;;;;;;;;;5077916;28;20025;-89
2024/01/18 05:59:16;;;;;;;11.30;3.80;;;;;;;;;;5075070;28;20456;-91
2024/01/18 06:01:42;;;;;;;4.47;1.10;;;;;;;;;;5074970;28;20255;-91
2024/01/18 06:04:11;;;;;;;23.10;6.50;;;;;;;;;;5078109;28;20569;-90
2024/01/18 06:06:37;;;;;;;37.97;12.70;;;;;;;;;;5059672;28;20737;-91
2024/01/18 06:09:03;;;;;;;12.50;3.37;;;;;;;;;;5059853;28;20279;-88
2024/01/18 06:11:29;;;;;;;17.67;6.13;;;;;;;;;;5059544;28;20285;-91
2024/01/18 06:13:55;;;;;;;11.70;2.60;;;;;;;;;;5078080;28;20290;-89
2024/01/18 06:16:21;;;;;;;4.53;1.33;;;;;;;;;;5060996;28;20321;-89
2024/01/18 06:18:47;;;;;;;1.57;0.77;;;;;;;;;;5059924;28;20762;-90
2024/01/18 06:21:13;;;;;;;0.83;0.43;;;;;;;;;;5057212;28;20109;-88
2024/01/18 06:23:42;;;;;;;8.00;1.43;;;;;;;;;;5074011;28;20043;-90
2024/01/18 06:26:11;;;;;;;1.00;0.60;;;;;;;;;;5075154;28;20270;-86
2024/01/18 06:28:38;;;;;;;6.10;2.27;;;;;;;;;;5079177;28;20302;-89
2024/01/18 06:31:05;;;;;;;2.10;1.07;;;;;;;;;;5074109;28;20283;-86
2024/01/18 06:33:31;;;;;;;0.70;0.30;;;;;;;;;;5073965;28;21015;-86
2024/01/18 06:35:57;;;;;;;0.87;0.43;;;;;;;;;;5055764;28;20778;-89
2024/01/18 06:38:23;;;;;;;1.03;0.70;;;;;;;;;;5057945;28;20115;-92
2024/01/18 06:40:49;;;;;;;16.30;3.53;;;;;;;;;;5076404;28;20389;-86
2024/01/18 06:43:16;;;;;;;4.50;2.10;;;;;;;;;;5078430;28;20281;-83
2024/01/18 06:45:42;;;;;;;1.40;0.87;;;;;;;;;;5076571;28;20347;-90
2024/01/18 06:48:09;;;;;;;3.10;1.80;;;;;;;;;;5057697;28;20283;-89
2024/01/18 06:50:37;;;;;;;1.13;0.70;;;;;;;;;;5075896;28;20365;-87
2024/01/18 06:53:03;;;;;;;19.67;4.63;;;;;;;;;;5077069;28;20344;-86
2024/01/18 06:55:29;;;;;;;10.57;2.37;;;;;;;;;;5059324;28;20274;-88
2024/01/18 06:57:58;;;;;;;20.70;5.20;;;;;;;;;;5073580;28;20282;-89
2024/01/18 07:00:26;;;;;;;5.07;1.60;;;;;;;;;;5076530;28;20327;-90
2024/01/18 07:02:52;;;;;;;23.13;5.37;;;;;;;;;;5074769;28;20294;-87
2024/01/18 07:05:18;;;;;;;1.57;0.90;;;;;;;;;;5076307;28;20279;-88
2024/01/18 07:07:45;;;;;;;0.40;0.30;;;;;;;;;;5054928;28;20361;-83
2024/01/18 07:10:11;;;;;;;23.03;6.00;;;;;;;;;;5055392;28;20347;-87
2024/01/18 07:12:41;;;;;;;1.10;0.60;;;;;;;;;;5058275;28;20329;-87
2024/01/18 07:15:08;;;;;;;0.80;0.50;;;;;;;;;;5057692;28;20282;-91
2024/01/18 07:17:36;;;;;;;29.40;6.57;;;;;;;;;;5079100;28;20275;-89
2024/01/18 07:20:03;;;;;;;4.40;1.33;;;;;;;;;;5063439;28;20302;-83
2024/01/18 07:22:30;;;;;;;3.23;0.73;;;;;;;;;;5077283;28;20287;-83
2024/01/18 07:24:56;;;;;;;8.23;3.17;;;;;;;;;;5058167;28;20752;-85
2024/01/18 07:27:22;;;;;;;44.00;10.77;;;;;;;;;;5073318;28;20062;-88
2024/01/18 07:29:49;;;;;;;42.73;9.97;;;;;;;;;;5049519;28;20302;-87
2024/01/18 07:32:16;;;;;;;11.73;4.10;;;;;;;;;;5073376;28;20047;-87
2024/01/18 07:34:42;;;;;;;33.70;8.97;;;;;;;;;;5052559;28;20302;-87
2024/01/18 07:37:12;;;;;;;39.97;11.03;;;;;;;;;;5051746;28;20275;-89
2024/01/18 07:39:38;;;;;;;1.30;0.90;;;;;;;;;;5071616;28;20263;-89
2024/01/18 07:42:06;;;;;;;3.13;1.30;;;;;;;;;;5059166;28;20293;-83
2024/01/18 07:44:35;;;;;;;2.77;1.30;;;;;;;;;;5051588;28;20032;-91
2024/01/18 07:47:01;;;;;;;1.70;1.00;;;;;;;;;;5074643;28;20270;-86
2024/01/18 07:49:27;;;;;;;5.10;2.00;;;;;;;;;;5056431;28;20626;-86
2024/01/18 07:51:53;;;;;;;6.60;1.67;;;;;;;;;;5072005;28;20290;-88
2024/01/18 07:54:19;;;;;;;2.63;1.20;;;;;;;;;;5074857;28;20282;-86
2024/01/18 07:56:48;;;;;;;1.93;0.97;;;;;;;;;;5077112;28;20319;-86
2024/01/18 07:59:14;;;;;;;3.87;1.37;;;;;;;;;;5075448;28;20271;-89
2024/01/18 08:01:40;;;;;;;5.30;2.03;;;;;;;;;;5060851;28;20290;-83
2024/01/18 08:04:06;;;;;;;3.67;1.30;;;;;;;;;;5055653;28;21198;-87
2024/01/18 08:06:32;;;;;;;2.90;0.70;;;;;;;;;;5058686;28;20266;-89
2024/01/18 08:09:01;;;;;;;2.30;1.00;;;;;;;;;;5053867;28;20286;-81
2024/01/18 08:11:28;;;;;;;25.73;6.87;;;;;;;;;;5058813;28;20025;-84
2024/01/18 08:13:54;;;;;;;2.87;1.07;;;;;;;;;;5079323;28;20293;-89
2024/01/18 08:16:20;;;;;;;24.47;5.80;;;;;;;;;;5080498;28;20275;-85
2024/01/18 08:18:55;;;;;;;5.40;1.70;;;;;;;;;;5076943;28;20305;-87
2024/01/18 08:21:24;;;;;;;22.33;7.13;;;;;;;;;;5076820;28;20278;-85
2024/01/18 08:24:01;;;;;;;29.67;7.97;;;;;;;;;;5076858;28;20342;-88
2024/01/18 08:26:29;;;;;;;6.70;1.93;;;;;;;;;;5077010;28;20282;-87
2024/01/18 08:28:57;;;;;;;40.43;9.30;;;;;;;;;;5075628;28;20291;-91
2024/01/18 08:31:27;;;;;;;47.77;10.03;;;;;;;;;;5077002;28;20289;-89
2024/01/18 08:33:53;;;;;;;11.63;2.90;;;;;;;;;;5059197;28;20286;-90
2024/01/18 08:36:23;;;;;;;51.43;11.97;;;;;;;;;;5060399;28;20313;-86
2024/01/18 08:38:50;;;;;;;65.80;14.67;;;;;;;;;;5056893;28;20278;-89
2024/01/18 08:41:18;;;;;;;25.27;7.83;;;;;;;;;;5076074;28;20275;-88
2024/01/18 08:43:50;;;;;;;56.80;13.53;;;;;;;;;;5073678;28;20274;-87
2024/01/18 08:46:24;;;;;;;54.90;13.40;;;;;;;;;;5076808;28;20282;-90
2024/01/18 08:48:50;;;;;;;23.00;7.90;;;;;;;;;;5061689;28;20029;-88
2024/01/18 08:51:16;;;;;;;14.53;5.97;;;;;;;;;;5075540;28;20317;-88
2024/01/18 08:53:44;;;;;;;46.53;13.60;;;;;;;;;;5079293;28;20278;-89
2024/01/18 08:56:12;;;;;;;40.13;10.73;;;;;;;;;;5072509;28;20271;-88
2024/01/18 08:58:39;;;;;;;35.53;11.53;;;;;;;;;;5073622;28;20304;-86
2024/01/18 09:01:08;;;;;;;41.10;9.33;;;;;;;;;;5056173;28;20278;-90
2024/01/18 09:03:41;;;;;;;60.53;15.33;;;;;;;;;;5073362;28;20302;-87
2024/01/18 09:06:07;;;;;;;4.90;2.40;;;;;;;;;;5055040;28;20270;-91
2024/01/18 09:08:36;;;;;;;18.50;5.80;;;;;;;;;;5076753;28;20361;-87
2024/01/18 09:11:03;;;;;;;35.70;10.33;;;;;;;;;;5075386;28;20279;-91
2024/01/18 09:13:58;;;;;;;4.47;2.07;;;;;;;;;;5058651;28;20306;-92
2024/01/18 09:16:27;;;;;;;30.73;9.90;;;;;;;;;;5055594;28;20710;-87
2024/01/18 09:18:53;;;;;;;43.67;9.37;;;;;;;;;;5075564;28;20278;-86
2024/01/18 09:21:21;;;;;;;39.60;9.63;;;;;;;;;;5074409;28;20276;-87
2024/01/18 09:23:48;;;;;;;57.67;11.47;;;;;;;;;;5053835;28;20278;-87
2024/01/18 09:26:14;;;;;;;83.87;21.83;;;;;;;;;;5051915;28;20861;-89
2024/01/18 09:28:42;;;;;;;7.33;3.57;;;;;;;;;;5073597;28;20279;-91
2024/01/18 09:31:09;;;;;;;44.43;11.03;;;;;;;;;;5076667;28;20275;-90
2024/01/18 09:33:37;;;;;;;25.27;8.07;;;;;;;;;;5072424;28;20283;-88
2024/01/18 09:36:06;;;;;;;61.73;15.83;;;;;;;;;;5055449;28;20282;-86
2024/01/18 09:38:35;;;;;;;34.50;9.87;;;;;;;;;;5074819;28;20302;-86
2024/01/18 09:41:04;;;;;;;56.17;15.73;;;;;;;;;;5052960;28;20279;-87
2024/01/18 09:43:32;;;;;;;31.67;9.10;;;;;;;;;;5075343;28;20804;-90
2024/01/18 09:45:59;;;;;;;13.83;5.20;;;;;;;;;;5072900;28;20274;-85
2024/01/18 09:48:25;;;;;;;46.03;11.63;;;;;;;;;;5077536;28;21201;-89
2024/01/18 09:50:52;;;;;;;61.33;14.83;;;;;;;;;;5072675;28;20274;-92
2024/01/18 09:53:18;;;;;;;11.73;3.80;;;;;;;;;;5076515;28;20361;-88
2024/01/18 09:55:47;;;;;;;58.70;13.27;;;;;;;;;;5076294;28;20271;-89
2024/01/18 09:58:14;;;;;;;28.27;8.30;;;;;;;;;;5079210;28;20300;-87
2024/01/18 10:00:44;;;;;;;10.03;4.53;;;;;;;;;;5078779;28;20282;-86
2024/01/18 10:03:11;;;;;;;63.30;18.30;;;;;;;;;;5082233;28;20290;-89
2024/01/18 10:05:39;;;;;;;65.17;17.17;;;;;;;;;;5076127;28;20271;-88
2024/01/18 10:08:08;;;;;;;23.90;7.53;;;;;;;;;;5077482;28;20278;-86
2024/01/18 10:10:34;;;;;;;47.27;9.60;;;;;;;;;;5079760;28;20282;-87
2024/01/18 10:13:02;;;;;;;25.33;8.30;;;;;;;;;;5060373;28;20293;-84
2024/01/18 10:15:31;;;;;;;78.90;19.50;;;;;;;;;;5080555;28;20332;-87
2024/01/18 10:18:03;;;;;;;48.23;14.00;;;;;;;;;;5078672;28;20285;-88
2024/01/18 10:20:29;;;;;;;34.60;8.53;;;;;;;;;;5078731;28;20330;-89
2024/01/18 10:22:57;;;;;;;53.43;12.30;;;;;;;;;;5079365;28;20278;-87
2024/01/18 10:25:27;;;;;;;59.67;12.13;;;;;;;;;;5082386;28;20278;-87
2024/01/18 10:27:53;;;;;;;42.47;14.80;;;;;;;;;;5078421;28;20365;-87
2024/01/18 10:30:20;;;;;;;49.70;18.30;;;;;;;;;;5078743;28;20342;-88
2024/01/18 10:32:56;;;;;;;121.20;33.90;;;;;;;;;;5084306;28;20291;-83
2024/01/18 10:35:39;;;;;;;84.20;24.27;;;;;;;;;;5082451;28;20279;-87
2024/01/18 10:38:06;;;;;;;56.42;16.77;;;;;;;;;;5056919;28;20287;-91
2024/01/18 10:40:36;;;;;;;30.97;10.80;;;;;;;;;;5079252;28;20040;-86
2024/01/18 10:43:07;;;;;;;63.97;18.93;;;;;;;;;;5070484;28;20279;-92
2024/01/18 10:45:36;;;;;;;30.77;11.47;;;;;;;;;;5082635;28;20267;-90
2024/01/18 10:48:02;;;;;;;18.10;6.30;;;;;;;;;;5070804;28;20348;-91
2024/01/18 10:50:28;;;;;;;54.30;16.77;;;;;;;;;;5074612;28;20731;-92
2024/01/18 10:52:59;;;;;;;23.40;8.10;;;;;;;;;;5085380;28;20664;-90
2024/01/18 10:55:33;;;;;;;67.20;20.67;;;;;;;;;;5067461;28;20356;-92
2024/01/18 10:57:59;;;;;;;61.97;16.30;;;;;;;;;;5068277;28;20271;-90
2024/01/18 11:00:25;;;;;;;45.57;12.73;;;;;;;;;;5069040;28;20296;-92
2024/01/18 11:02:51;;;;;;;43.40;13.57;;;;;;;;;;5064121;28;20267;-92
2024/01/18 11:05:20;;;;;;;15.43;6.37;;;;;;;;;;5086975;28;20281;-92
2024/01/18 11:07:47;;;;;;;24.20;6.13;;;;;;;;;;5089363;28;20263;-93
2024/01/18 11:10:13;;;;;;;33.23;10.33;;;;;;;;;;5067837;28;20289;-90
2024/01/18 11:12:40;;;;;;;20.40;6.70;;;;;;;;;;5068793;28;20286;-91
2024/01/18 11:15:07;;;;;;;39.53;10.27;;;;;;;;;;5080060;28;20282;-91
2024/01/18 11:17:35;;;;;;;25.87;9.20;;;;;;;;;;5083418;28;20591;-93
2024/01/18 11:20:01;;;;;;;42.83;11.40;;;;;;;;;;5063376;28;20297;-92
2024/01/18 11:22:30;;;;;;;11.80;3.90;;;;;;;;;;5071464;28;20274;-92
2024/01/18 11:25:07;;;;;;;18.60;4.67;;;;;;;;;;5081244;28;20278;-91
2024/01/18 11:27:40;;;;;;;31.87;11.07;;;;;;;;;;5075254;28;20262;-91
2024/01/18 11:30:26;;;;;;;65.17;15.43;;;;;;;;;;5061941;28;20259;-91
2024/01/18 11:32:54;;;;;;;32.57;10.87;;;;;;;;;;5059818;28;20305;-89
2024/01/18 11:35:23;;;;;;;25.80;8.93;;;;;;;;;;5068574;28;20303;-93
2024/01/18 11:37:49;;;;;;;79.77;21.13;;;;;;;;;;5066261;28;20921;-90
2024/01/18 11:40:17;;;;;;;48.03;10.63;;;;;;;;;;5076297;28;20271;-86
2024/01/18 11:42:45;;;;;;;52.47;17.07;;;;;;;;;;5060820;28;20279;-86
2024/01/18 11:45:17;;;;;;;9.67;4.80;;;;;;;;;;5065979;28;20353;-82
2024/01/18 11:47:43;;;;;;;67.57;19.15;;;;;;;;;;5078976;28;20275;-91
2024/01/18 11:50:11;;;;;;;48.93;15.93;;;;;;;;;;5061770;28;20043;-90
2024/01/18 11:52:38;;;;;;;30.73;11.10;;;;;;;;;;5069224;28;20305;-89
2024/01/18 11:55:06;;;;;;;47.53;14.03;;;;;;;;;;5079400;28;20286;-90
2024/01/18 11:57:32;;;;;;;36.30;11.10;;;;;;;;;;5061732;28;20276;-85
2024/01/18 11:59:59;;;;;;;36.77;11.77;;;;;;;;;;5060147;28;20283;-85
2024/01/18 12:02:30;;;;;;;68.57;16.17;;;;;;;;;;5073280;28;20271;-84
2024/01/18 12:04:57;;;;;;;24.93;7.37;;;;;;;;;;5074565;28;20282;-90
2024/01/18 12:07:23;;;;;;;51.47;14.37;;;;;;;;;;5077589;28;20297;-89
2024/01/18 12:09:50;;;;;;;49.57;13.90;;;;;;;;;;5055845;28;20302;-88
2024/01/18 12:12:19;;;;;;;17.70;7.10;;;;;;;;;;5064228;28;20322;-85
2024/01/18 12:14:45;;;;;;;31.43;10.50;;;;;;;;;;5061805;28;20256;-88
2024/01/18 12:17:15;;;;;;;54.07;14.40;;;;;;;;;;5054487;28;20282;-83
2024/01/18 12:19:42;;;;;;;13.33;4.97;;;;;;;;;;5047270;28;20278;-83
2024/01/18 12:22:09;;;;;;;8.50;4.93;;;;;;;;;;5067919;28;20278;-85
2024/01/18 12:24:36;;;;;;;53.23;15.17;;;;;;;;;;5049185;28;20332;-88
2024/01/18 12:27:03;;;;;;;14.80;4.93;;;;;;;;;;5067539;28;20295;-88
2024/01/18 12:29:29;;;;;;;57.63;15.43;;;;;;;;;;5068168;28;20358;-85
2024/01/18 12:31:55;;;;;;;32.03;9.33;;;;;;;;;;5068998;28;20313;-86
2024/01/18 12:34:24;;;;;;;50.37;14.07;;;;;;;;;;5053324;28;20757;-83
2024/01/18 12:36:51;;;;;;;22.90;8.13;;;;;;;;;;5069733;28;20041;-88
2024/01/18 12:39:22;;;;;;;24.53;8.13;;;;;;;;;;5067734;28;20275;-88
2024/01/18 12:41:53;;;;;;;6.67;3.23;;;;;;;;;;5068077;28;20298;-88
2024/01/18 12:44:19;;;;;;;30.40;11.23;;;;;;;;;;5072104;28;20750;-83
2024/01/18 12:46:47;;;;;;;50.27;15.63;;;;;;;;;;5050604;28;20288;-86
2024/01/18 12:49:15;;;;;;;76.73;21.33;;;;;;;;;;5067916;28;20312;-82
2024/01/18 12:51:44;;;;;;;46.37;15.60;;;;;;;;;;5049838;28;20287;-84
2024/01/18 12:54:14;;;;;;;64.90;20.13;;;;;;;;;;5068386;28;20318;-87
2024/01/18 12:56:42;;;;;;;22.53;7.97;;;;;;;;;;5069632;28;20325;-86
2024/01/18 12:59:12;;;;;;;38.40;14.03;;;;;;;;;;5053200;28;20342;-87
2024/01/18 13:01:38;;;;;;;55.27;15.67;;;;;;;;;;5047801;28;20389;-84
2024/01/18 13:04:14;;;;;;;44.20;13.03;;;;;;;;;;5070098;28;20287;-86
2024/01/18 13:06:47;;;;;;;19.40;7.87;;;;;;;;;;5068784;28;20282;-86
2024/01/18 13:09:13;;;;;;;39.15;13.52;;;;;;;;;;5067446;28;20279;-86
2024/01/18 13:11:39;;;;;;;20.57;6.03;;;;;;;;;;5067413;28;20803;-87
2024/01/18 13:14:11;;;;;;;14.07;6.27;;;;;;;;;;5066289;28;20294;-85
2024/01/18 13:16:41;;;;;;;27.05;10.13;;;;;;;;;;5047833;28;20788;-85
2024/01/18 13:19:10;;;;;;;56.53;13.33;;;;;;;;;;5065951;28;20032;-87
2024/01/18 13:21:36;;;;;;;31.27;10.00;;;;;;;;;;5063757;28;20279;-82
2024/01/18 13:24:08;;;;;;;33.13;11.00;;;;;;;;;;5065861;28;20282;-82
2024/01/18 13:26:34;;;;;;;9.48;4.60;;;;;;;;;;5065334;28;20274;-81
2024/01/18 13:29:00;;;;;;;9.60;3.93;;;;;;;;;;5045632;28;20032;-79
2024/01/18 13:31:28;;;;;;;5.50;2.93;;;;;;;;;;5064963;28;20282;-84
2024/01/18 13:33:57;;;;;;;10.30;3.63;;;;;;;;;;5044838;28;20036;-83
2024/01/18 13:36:23;;;;;;;18.83;6.93;;;;;;;;;;5065429;28;20374;-83
2024/01/18 13:38:49;;;;;;;11.10;4.70;;;;;;;;;;5064325;28;20392;-84
2024/01/18 13:41:15;;;;;;;4.20;2.27;;;;;;;;;;5063501;28;20043;-82
2024/01/18 13:43:41;;;;;;;3.43;2.07;;;;;;;;;;5064460;28;20275;-87
2024/01/18 13:46:10;;;;;;;18.33;5.37;;;;;;;;;;5063134;28;20855;-86
2024/01/18 13:48:36;;;;;;;3.37;1.97;;;;;;;;;;5064413;28;20374;-80
2024/01/18 13:51:02;;;;;;;14.73;4.13;;;;;;;;;;5042839;28;20303;-86
2024/01/18 13:53:29;;;;;;;7.93;3.17;;;;;;;;;;5047460;28;20287;-83
2024/01/18 13:55:55;;;;;;;8.97;3.30;;;;;;;;;;5063379;28;20335;-83
2024/01/18 13:58:21;;;;;;;17.93;6.63;;;;;;;;;;5065009;28;20309;-81
2024/01/18 14:00:48;;;;;;;15.53;4.73;;;;;;;;;;5043892;28;20353;-83
2024/01/18 14:03:16;;;;;;;7.13;3.50;;;;;;;;;;5063342;28;20331;-81
2024/01/18 14:05:43;;;;;;;18.60;5.67;;;;;;;;;;5063037;28;20283;-82
2024/01/18 14:08:12;;;;;;;14.23;4.77;;;;;;;;;;5063609;28;20394;-88
2024/01/18 14:10:38;;;;;;;7.40;2.60;;;;;;;;;;5065224;28;20275;-80
2024/01/18 14:13:06;;;;;;;11.77;3.57;;;;;;;;;;5064010;28;20291;-84
2024/01/18 14:15:33;;;;;;;4.93;2.00;;;;;;;;;;5065054;28;20730;-86
2024/01/18 14:18:03;;;;;;;7.40;2.33;;;;;;;;;;5062875;28;20322;-83
2024/01/18 14:20:29;;;;;;;19.00;3.37;;;;;;;;;;5064143;28;20370;-84
2024/01/18 14:22:55;;;;;;;8.50;2.20;;;;;;;;;;5064241;28;20275;-83
2024/01/18 14:25:24;;;;;;;4.67;2.00;;;;;;;;;;5064126;28;20290;-85
2024/01/18 14:27:52;;;;;;;2.47;1.23;;;;;;;;;;5064956;28;20357;-82
2024/01/18 14:30:18;;;;;;;10.20;3.33;;;;;;;;;;5064983;28;20813;-83
2024/01/18 14:32:44;;;;;;;25.87;5.00;;;;;;;;;;5064944;28;20286;-83
2024/01/18 14:35:10;;;;;;;5.37;1.80;;;;;;;;;;5063893;28;20279;-85